createdAt,value
2023-05-13T00:01:19.013Z,99.90
2023-05-13T00:04:07.114Z,99.90
2023-05-13T00:06:54.305Z,99.90
2023-05-13T00:09:41.755Z,99.90
2023-05-13T00:12:31.222Z,99.90
2023-05-13T00:15:18.745Z,99.90
2023-05-13T00:18:06.234Z,99.90
2023-05-13T00:20:53.939Z,99.90
2023-05-13T00:23:41.951Z,99.90
2023-05-13T00:26:29.566Z,99.90
2023-05-13T00:29:18.686Z,99.90
2023-05-13T00:32:07.250Z,99.90
2023-05-13T00:34:55.975Z,99.90
2023-05-13T00:37:43.257Z,99.90
2023-05-13T00:40:30.917Z,99.90
2023-05-13T00:43:18.637Z,99.90
2023-05-13T00:46:08.034Z,99.90
2023-05-13T00:48:56.002Z,99.90
2023-05-13T00:51:44.300Z,99.90
2023-05-13T00:54:31.694Z,99.90
2023-05-13T00:57:19.936Z,99.90
2023-05-13T01:00:09.111Z,99.90
2023-05-13T01:03:03.250Z,99.90
2023-05-13T01:06:00.160Z,99.90
2023-05-13T01:08:57.776Z,99.90
2023-05-13T01:11:46.796Z,99.90
2023-05-13T01:14:37.016Z,99.90
2023-05-13T01:17:31.991Z,99.90
2023-05-13T01:20:24.152Z,99.90
2023-05-13T01:23:14.100Z,99.90
2023-05-13T01:26:01.867Z,99.90
2023-05-13T01:28:51.992Z,99.90
2023-05-13T01:31:42.540Z,99.90
2023-05-13T01:34:30.921Z,99.90
2023-05-13T01:37:18.691Z,99.90
2023-05-13T01:40:24.073Z,99.90
2023-05-13T01:43:19.206Z,99.90
2023-05-13T01:46:13.613Z,99.90
2023-05-13T01:49:01.699Z,99.90
2023-05-13T01:51:49.426Z,99.90
2023-05-13T01:54:37.210Z,99.90
2023-05-13T01:57:30.899Z,99.90
2023-05-13T02:00:19.633Z,99.90
2023-05-13T02:03:10.330Z,99.90
2023-05-13T02:05:57.859Z,99.90
2023-05-13T02:08:45.380Z,99.90
2023-05-13T02:11:32.971Z,99.90
2023-05-13T02:14:22.058Z,99.90
2023-05-13T02:17:09.464Z,99.90
2023-05-13T02:19:57.182Z,99.90
2023-05-13T02:22:44.971Z,99.90
2023-05-13T02:25:32.248Z,99.90
2023-05-13T02:28:20.358Z,99.90
2023-05-13T02:31:08.943Z,99.90
2023-05-13T02:33:56.473Z,99.90
2023-05-13T02:36:43.802Z,99.90
2023-05-13T02:39:31.343Z,99.90
2023-05-13T02:42:20.176Z,99.90
2023-05-13T02:45:09.498Z,99.90
2023-05-13T02:48:01.080Z,99.90
2023-05-13T02:50:50.271Z,99.90
2023-05-13T02:53:37.829Z,99.90
2023-05-13T02:56:27.731Z,99.90
2023-05-13T02:59:15.132Z,99.90
2023-05-13T03:02:02.700Z,99.90
2023-05-13T03:04:51.671Z,99.90
2023-05-13T03:07:38.987Z,99.90
2023-05-13T03:10:26.462Z,99.90
2023-05-13T03:13:14.079Z,99.90
2023-05-13T03:16:01.506Z,99.90
2023-05-13T03:18:49.344Z,99.90
2023-05-13T03:21:39.610Z,99.90
2023-05-13T03:24:30.549Z,99.90
2023-05-13T03:27:18.925Z,99.90
2023-05-13T03:30:07.772Z,99.90
2023-05-13T03:33:02.574Z,99.90
2023-05-13T03:35:50.467Z,99.90
2023-05-13T03:38:44.809Z,99.90
2023-05-13T03:41:32.807Z,99.90
2023-05-13T03:44:21.116Z,99.90
2023-05-13T03:47:09.160Z,99.90
2023-05-13T03:49:57.125Z,99.90
2023-05-13T03:52:46.960Z,99.90
2023-05-13T03:55:37.384Z,99.90
2023-05-13T03:58:25.278Z,99.90
2023-05-13T04:01:12.950Z,99.90
2023-05-13T04:04:00.352Z,99.90
2023-05-13T04:06:47.737Z,99.90
2023-05-13T04:09:35.516Z,99.90
2023-05-13T04:12:24.988Z,99.90
2023-05-13T04:15:12.995Z,99.90
2023-05-13T04:18:01.499Z,99.90
2023-05-13T04:20:49.294Z,99.90
2023-05-13T04:23:37.014Z,99.90
2023-05-13T04:26:24.464Z,99.90
2023-05-13T04:29:13.529Z,99.90
2023-05-13T04:32:02.754Z,99.90
2023-05-13T04:34:50.675Z,99.90
2023-05-13T04:37:38.997Z,99.90
2023-05-13T04:40:28.918Z,99.90
2023-05-13T04:43:19.635Z,99.90
2023-05-13T04:46:13.147Z,99.90
2023-05-13T04:49:00.798Z,99.90
2023-05-13T04:51:48.636Z,99.90
2023-05-13T04:54:39.099Z,99.90
2023-05-13T04:57:27.727Z,99.90
2023-05-13T05:00:16.637Z,99.90
2023-05-13T05:03:07.620Z,99.90
2023-05-13T05:05:55.367Z,99.90
2023-05-13T05:08:45.052Z,99.90
2023-05-13T05:11:32.683Z,99.90
2023-05-13T05:14:20.330Z,99.90
2023-05-13T05:17:09.627Z,99.90
2023-05-13T05:19:58.736Z,99.90
2023-05-13T05:22:46.931Z,99.90
2023-05-13T05:25:34.602Z,99.90
2023-05-13T05:28:22.455Z,99.90
2023-05-13T05:31:10.536Z,99.90
2023-05-13T05:34:01.071Z,99.90
2023-05-13T05:36:50.390Z,99.90
2023-05-13T05:39:41.220Z,99.90
2023-05-13T05:42:29.048Z,99.90
2023-05-13T05:45:16.356Z,99.90
2023-05-13T05:48:04.353Z,99.90
2023-05-13T05:50:52.305Z,99.90
2023-05-13T05:53:47.882Z,99.90
2023-05-13T05:56:37.430Z,99.90
2023-05-13T05:59:25.115Z,99.90
2023-05-13T06:02:12.897Z,99.90
2023-05-13T06:05:00.733Z,99.90
2023-05-13T06:07:48.216Z,99.90
2023-05-13T06:10:38.533Z,99.90
2023-05-13T06:13:26.389Z,99.90
2023-05-13T06:16:13.672Z,99.90
2023-05-13T06:19:01.264Z,99.90
2023-05-13T06:21:48.768Z,99.90
2023-05-13T06:24:36.145Z,99.90
2023-05-13T06:27:25.307Z,99.90
2023-05-13T06:30:12.960Z,99.90
2023-05-13T06:33:03.101Z,99.90
2023-05-13T06:35:51.578Z,99.90
2023-05-13T06:38:42.196Z,99.90
2023-05-13T06:41:29.590Z,99.90
2023-05-13T06:44:24.358Z,99.90
2023-05-13T06:47:16.416Z,99.90
2023-05-13T06:50:04.908Z,99.90
2023-05-13T06:52:52.769Z,99.90
2023-05-13T06:55:41.907Z,99.90
2023-05-13T06:58:29.578Z,99.90
2023-05-13T07:01:18.490Z,99.90
2023-05-13T07:04:06.653Z,99.90
2023-05-13T07:06:54.780Z,99.90
2023-05-13T07:09:42.211Z,99.90
2023-05-13T07:12:29.655Z,99.90
2023-05-13T07:15:17.577Z,99.90
2023-05-13T07:18:06.553Z,99.90
2023-05-13T07:20:54.303Z,99.90
2023-05-13T07:23:43.702Z,99.90
2023-05-13T07:26:32.200Z,99.90
2023-05-13T07:29:19.943Z,99.90
2023-05-13T07:32:08.597Z,99.90
2023-05-13T07:34:57.953Z,99.90
2023-05-13T07:37:45.904Z,99.90
2023-05-13T07:40:33.527Z,99.90
2023-05-13T07:43:23.962Z,99.90
2023-05-13T07:46:11.885Z,99.90
2023-05-13T07:48:59.227Z,99.90
2023-05-13T07:51:48.098Z,99.90
2023-05-13T07:54:35.522Z,99.90
2023-05-13T07:57:23.083Z,99.90
2023-05-13T08:00:11.675Z,99.90
2023-05-13T08:03:02.643Z,99.90
2023-05-13T08:05:50.132Z,99.90
2023-05-13T08:08:38.880Z,99.90
2023-05-13T08:11:26.583Z,99.90
2023-05-13T08:14:14.210Z,99.90
2023-05-13T08:17:01.935Z,99.90
2023-05-13T08:19:49.596Z,99.90
2023-05-13T08:22:37.380Z,99.90
2023-05-13T08:25:26.559Z,99.90
2023-05-13T08:28:13.960Z,99.90
2023-05-13T08:31:02.817Z,99.90
2023-05-13T08:33:50.257Z,99.90
2023-05-13T08:36:37.717Z,99.90
2023-05-13T08:39:25.438Z,99.90
2023-05-13T08:42:19.375Z,99.90
2023-05-13T08:45:09.930Z,99.90
2023-05-13T08:47:59.524Z,99.90
2023-05-13T08:50:47.685Z,99.90
2023-05-13T08:53:36.405Z,99.90
2023-05-13T08:56:25.705Z,99.90
2023-05-13T08:59:14.433Z,99.90
2023-05-13T09:02:03.908Z,99.90
2023-05-13T09:04:56.302Z,99.90
2023-05-13T09:07:43.828Z,99.90
2023-05-13T09:10:31.390Z,99.90
2023-05-13T09:13:19.427Z,99.90
2023-05-13T09:16:08.763Z,99.90
2023-05-13T09:19:00.573Z,99.90
2023-05-13T09:21:48.285Z,99.80
2023-05-13T09:24:36.245Z,99.70
2023-05-13T09:27:38.272Z,99.90
2023-05-13T09:30:26.174Z,98.80
2023-05-13T09:33:16.745Z,99.20
2023-05-13T09:36:05.984Z,97.10
2023-05-13T09:38:56.353Z,97.50
2023-05-13T09:41:43.932Z,97.20
2023-05-13T09:44:31.772Z,97.80
2023-05-13T09:47:19.302Z,95.70
2023-05-13T09:50:10.821Z,96.10
2023-05-13T09:52:58.606Z,93.60
2023-05-13T09:55:47.524Z,93.00
2023-05-13T09:58:34.953Z,93.30
2023-05-13T10:01:23.483Z,94.10
2023-05-13T10:04:11.694Z,93.30
2023-05-13T10:07:03.317Z,92.80
2023-05-13T10:09:51.658Z,93.60
2023-05-13T10:12:43.140Z,93.00
2023-05-13T10:15:31.146Z,93.70
2023-05-13T10:18:19.443Z,91.00
2023-05-13T10:21:07.949Z,90.50
2023-05-13T10:23:57.837Z,90.60
2023-05-13T10:26:46.437Z,87.00
2023-05-13T10:29:35.431Z,89.20
2023-05-13T10:32:24.922Z,85.50
2023-05-13T10:35:15.035Z,82.10
2023-05-13T10:38:07.005Z,87.50
2023-05-13T10:41:10.080Z,85.00
2023-05-13T10:43:59.165Z,83.70
2023-05-13T10:46:49.162Z,83.60
2023-05-13T10:49:37.570Z,81.00
2023-05-13T10:52:25.170Z,85.00
2023-05-13T10:55:19.912Z,85.70
2023-05-13T10:58:16.273Z,86.40
2023-05-13T11:01:17.683Z,88.20
2023-05-13T11:04:06.889Z,86.30
2023-05-13T11:06:54.619Z,85.70
2023-05-13T11:09:42.201Z,88.60
2023-05-13T11:12:29.684Z,87.60
2023-05-13T11:15:24.261Z,87.50
2023-05-13T11:18:12.641Z,89.60
2023-05-13T11:21:05.639Z,87.60
2023-05-13T11:23:56.893Z,86.10
2023-05-13T11:26:49.157Z,86.90
2023-05-13T11:29:38.932Z,83.80
2023-05-13T11:32:56.653Z,85.90
2023-05-13T11:35:54.226Z,87.30
2023-05-13T11:38:42.008Z,85.60
2023-05-13T11:41:33.160Z,85.70
2023-05-13T11:44:22.173Z,82.80
2023-05-13T11:47:09.629Z,83.70
2023-05-13T11:49:59.407Z,81.50
2023-05-13T11:52:47.321Z,81.50
2023-05-13T11:55:36.386Z,79.70
2023-05-13T11:58:23.827Z,83.00
2023-05-13T12:01:15.976Z,83.50
2023-05-13T12:04:03.762Z,84.40
2023-05-13T12:06:52.962Z,83.50
2023-05-13T12:09:40.426Z,83.50
2023-05-13T12:12:30.109Z,80.50
2023-05-13T12:15:19.757Z,81.10
2023-05-13T12:18:08.280Z,81.10
2023-05-13T12:20:55.917Z,81.90
2023-05-13T12:23:44.680Z,81.90
2023-05-13T12:26:32.346Z,81.40
2023-05-13T12:29:19.700Z,81.90
2023-05-13T12:32:08.212Z,83.80
2023-05-13T12:34:55.677Z,82.60
2023-05-13T12:37:43.723Z,83.50
2023-05-13T12:40:33.065Z,82.10
2023-05-13T12:43:20.950Z,83.40
2023-05-13T12:46:09.011Z,82.70
2023-05-13T12:48:57.655Z,83.20
2023-05-13T12:51:45.150Z,83.60
2023-05-13T12:54:32.870Z,82.80
2023-05-13T12:57:21.942Z,83.20
2023-05-13T13:00:12.696Z,85.20
2023-05-13T13:03:00.302Z,84.20
2023-05-13T13:05:48.177Z,82.30
2023-05-13T13:08:36.105Z,82.10
2023-05-13T13:11:23.922Z,82.20
2023-05-13T13:14:12.680Z,80.70
2023-05-13T13:17:00.032Z,83.10
2023-05-13T13:19:47.726Z,82.20
2023-05-13T13:22:37.101Z,82.40
2023-05-13T13:25:24.973Z,83.80
2023-05-13T13:28:12.820Z,85.50
2023-05-13T13:31:01.717Z,84.00
2023-05-13T13:33:49.382Z,83.90
2023-05-13T13:36:37.140Z,81.70
2023-05-13T13:39:24.416Z,83.60
2023-05-13T13:42:11.766Z,83.10
2023-05-13T13:44:59.210Z,82.90
2023-05-13T13:47:48.111Z,82.00
2023-05-13T13:50:35.721Z,84.40
2023-05-13T13:53:23.382Z,85.50
2023-05-13T13:56:11.100Z,85.50
2023-05-13T13:58:58.823Z,85.90
2023-05-13T14:01:46.917Z,87.10
2023-05-13T14:04:37.197Z,88.80
2023-05-13T14:07:24.721Z,88.20
2023-05-13T14:10:12.239Z,87.60
2023-05-13T14:12:59.786Z,84.30
2023-05-13T14:15:47.183Z,85.50
2023-05-13T14:18:34.679Z,86.40
2023-05-13T14:21:23.544Z,87.30
2023-05-13T14:24:12.038Z,87.70
2023-05-13T14:27:00.019Z,86.70
2023-05-13T14:29:47.854Z,84.70
2023-05-13T14:32:35.824Z,86.50
2023-05-13T14:35:23.302Z,85.90
2023-05-13T14:38:12.140Z,86.60
2023-05-13T14:40:59.629Z,86.30
2023-05-13T14:43:47.489Z,86.30
2023-05-13T14:46:37.306Z,86.30
2023-05-13T14:49:25.242Z,85.80
2023-05-13T14:52:12.922Z,84.40
2023-05-13T14:55:01.674Z,84.60
2023-05-13T14:57:49.529Z,86.30
2023-05-13T15:00:38.968Z,84.40
2023-05-13T15:03:26.717Z,85.10
2023-05-13T15:06:14.383Z,86.50
2023-05-13T15:09:01.974Z,88.70
2023-05-13T15:11:50.650Z,90.50
2023-05-13T15:14:38.313Z,87.20
2023-05-13T15:17:25.905Z,89.10
2023-05-13T15:20:13.942Z,88.80
2023-05-13T15:23:01.289Z,89.10
2023-05-13T15:25:49.413Z,89.80
2023-05-13T15:28:38.333Z,88.60
2023-05-13T15:31:26.037Z,89.30
2023-05-13T15:34:13.879Z,91.10
2023-05-13T15:37:01.370Z,90.30
2023-05-13T15:39:48.880Z,90.80
2023-05-13T15:42:36.870Z,91.20
2023-05-13T15:45:25.689Z,90.60
2023-05-13T15:48:13.256Z,90.60
2023-05-13T15:51:00.886Z,90.80
2023-05-13T15:53:48.186Z,90.70
2023-05-13T15:56:35.873Z,91.40
2023-05-13T15:59:23.655Z,91.40
2023-05-13T16:02:12.988Z,91.70
2023-05-13T16:05:00.766Z,92.30
2023-05-13T16:07:48.262Z,93.30
2023-05-13T16:10:35.910Z,93.70
2023-05-13T16:13:23.632Z,93.70
2023-05-13T16:16:10.914Z,92.70
2023-05-13T16:18:59.880Z,93.20
2023-05-13T16:21:47.912Z,93.80
2023-05-13T16:24:35.670Z,92.90
2023-05-13T16:27:22.940Z,94.20
2023-05-13T16:30:11.600Z,94.00
2023-05-13T16:32:59.854Z,93.80
2023-05-13T16:35:48.791Z,94.70
2023-05-13T16:38:36.468Z,94.90
2023-05-13T16:41:23.847Z,94.80
2023-05-13T16:44:12.133Z,94.80
2023-05-13T16:46:59.545Z,95.20
2023-05-13T16:49:49.957Z,95.20
2023-05-13T16:52:38.619Z,95.60
2023-05-13T16:55:26.754Z,96.40
2023-05-13T16:58:14.417Z,97.70
2023-05-13T17:01:01.880Z,97.50
2023-05-13T17:03:49.266Z,98.40
2023-05-13T17:06:36.763Z,99.00
2023-05-13T17:09:25.741Z,99.30
2023-05-13T17:12:13.541Z,99.90
2023-05-13T17:15:01.098Z,99.90
2023-05-13T17:17:48.457Z,99.90
2023-05-13T17:20:35.978Z,99.90
2023-05-13T17:23:23.421Z,99.90
2023-05-13T17:26:12.802Z,99.90
2023-05-13T17:29:01.002Z,99.90
2023-05-13T17:31:51.756Z,99.90
2023-05-13T17:34:39.525Z,99.90
2023-05-13T17:37:27.174Z,99.90
2023-05-13T17:40:14.992Z,99.90
2023-05-13T17:43:04.140Z,99.90
2023-05-13T17:45:51.853Z,99.90
2023-05-13T17:48:39.613Z,99.90
2023-05-13T17:51:27.436Z,99.90
2023-05-13T17:54:14.961Z,99.90
2023-05-13T17:57:02.434Z,99.90
2023-05-13T17:59:51.459Z,99.90
2023-05-13T18:02:40.232Z,99.90
2023-05-13T18:05:28.389Z,99.90
2023-05-13T18:08:16.455Z,99.90
2023-05-13T18:11:03.875Z,99.90
2023-05-13T18:13:51.205Z,99.90
2023-05-13T18:16:40.154Z,99.90
2023-05-13T18:19:27.943Z,99.90
2023-05-13T18:22:15.270Z,99.90
2023-05-13T18:25:03.004Z,99.90
2023-05-13T18:27:51.356Z,99.90
2023-05-13T18:30:39.133Z,99.90
2023-05-13T18:33:28.256Z,99.90
2023-05-13T18:36:16.158Z,99.90
2023-05-13T18:39:03.901Z,99.90
2023-05-13T18:41:51.660Z,99.90
2023-05-13T18:44:38.915Z,99.90
2023-05-13T18:47:26.638Z,99.90
2023-05-13T18:50:16.279Z,99.90
2023-05-13T18:53:03.795Z,99.90
2023-05-13T18:55:51.510Z,99.90
2023-05-13T18:58:38.886Z,99.90
2023-05-13T19:01:26.840Z,99.90
2023-05-13T19:04:15.468Z,99.90
2023-05-13T19:07:04.638Z,99.90
2023-05-13T19:09:52.231Z,99.90
2023-05-13T19:12:39.983Z,99.90
2023-05-13T19:15:27.674Z,99.90
2023-05-13T19:18:15.131Z,99.90
2023-05-13T19:21:03.014Z,99.90
2023-05-13T19:23:51.959Z,99.90
2023-05-13T19:26:39.674Z,99.90
2023-05-13T19:29:27.120Z,99.90
2023-05-13T19:32:14.668Z,99.90
2023-05-13T19:35:02.498Z,99.90
2023-05-13T19:37:50.426Z,99.90
2023-05-13T19:40:39.616Z,99.90
2023-05-13T19:43:26.986Z,99.90
2023-05-13T19:46:14.804Z,99.90
2023-05-13T19:49:02.604Z,99.90
2023-05-13T19:51:49.974Z,99.90
2023-05-13T19:54:37.617Z,99.90
2023-05-13T19:57:28.626Z,99.90
2023-05-13T20:00:18.128Z,99.90
2023-05-13T20:03:06.234Z,99.90
2023-05-13T20:05:54.193Z,99.90
2023-05-13T20:08:41.578Z,99.90
2023-05-13T20:11:28.975Z,99.90
2023-05-13T20:14:23.007Z,99.90
2023-05-13T20:17:11.279Z,99.90
2023-05-13T20:19:58.695Z,99.90
2023-05-13T20:22:45.871Z,99.90
2023-05-13T20:25:33.324Z,99.90
2023-05-13T20:28:21.320Z,99.90
2023-05-13T20:31:10.404Z,99.90
2023-05-13T20:33:58.491Z,99.90
2023-05-13T20:36:46.366Z,99.90
2023-05-13T20:39:34.205Z,99.90
2023-05-13T20:42:22.787Z,99.90
2023-05-13T20:45:11.105Z,99.90
2023-05-13T20:48:01.216Z,99.90
2023-05-13T20:50:48.626Z,99.90
2023-05-13T20:53:36.663Z,99.90
2023-05-13T20:56:24.540Z,99.90
2023-05-13T20:59:11.986Z,99.90
2023-05-13T21:01:59.644Z,99.90
2023-05-13T21:04:48.618Z,99.90
2023-05-13T21:07:36.710Z,99.90
2023-05-13T21:10:24.979Z,99.90
2023-05-13T21:13:12.957Z,99.90
2023-05-13T21:16:00.743Z,99.90
2023-05-13T21:18:48.468Z,99.90
2023-05-13T21:21:37.186Z,99.90
2023-05-13T21:24:24.506Z,99.90
2023-05-13T21:27:11.897Z,99.90
2023-05-13T21:29:59.143Z,99.90
2023-05-13T21:32:46.639Z,99.90
2023-05-13T21:35:34.173Z,99.90
2023-05-13T21:38:25.657Z,99.90
2023-05-13T21:41:12.966Z,99.90
2023-05-13T21:44:00.536Z,99.90
2023-05-13T21:46:48.088Z,99.90
2023-05-13T21:49:36.228Z,99.90
2023-05-13T21:52:23.504Z,99.90
2023-05-13T21:55:12.814Z,99.90
2023-05-13T21:58:00.362Z,99.90
2023-05-13T22:00:47.769Z,99.90
2023-05-13T22:03:35.289Z,99.90
2023-05-13T22:06:22.703Z,99.90
2023-05-13T22:09:10.850Z,99.90
2023-05-13T22:11:59.853Z,99.90
2023-05-13T22:14:47.312Z,99.90
2023-05-13T22:17:34.932Z,99.90
2023-05-13T22:20:22.953Z,99.90
2023-05-13T22:23:10.725Z,99.90
2023-05-13T22:25:58.306Z,99.90
2023-05-13T22:28:49.535Z,99.90
2023-05-13T22:31:37.088Z,99.90
2023-05-13T22:34:24.686Z,99.90
2023-05-13T22:37:12.459Z,99.90
2023-05-13T22:40:01.211Z,99.90
2023-05-13T22:42:48.885Z,99.90
2023-05-13T22:45:38.043Z,99.90
2023-05-13T22:48:26.830Z,99.90
2023-05-13T22:51:14.544Z,99.90
2023-05-13T22:54:01.994Z,99.90
2023-05-13T22:56:49.384Z,99.90
2023-05-13T22:59:36.994Z,99.90
2023-05-13T23:02:26.213Z,99.90
2023-05-13T23:05:13.778Z,99.90
2023-05-13T23:08:01.494Z,99.90
2023-05-13T23:10:48.896Z,99.90
2023-05-13T23:13:36.195Z,99.90
2023-05-13T23:16:23.559Z,99.90
2023-05-13T23:19:12.645Z,99.90
2023-05-13T23:22:00.579Z,99.90
2023-05-13T23:24:48.197Z,99.90
2023-05-13T23:27:35.761Z,99.90
2023-05-13T23:30:23.718Z,99.90
2023-05-13T23:33:11.404Z,99.90
2023-05-13T23:36:00.456Z,99.90
2023-05-13T23:38:48.258Z,99.90
2023-05-13T23:41:35.936Z,99.90
2023-05-13T23:44:23.281Z,99.90
2023-05-13T23:47:12.074Z,99.90
2023-05-13T23:49:59.779Z,99.90
2023-05-13T23:52:51.261Z,99.90
2023-05-13T23:55:38.892Z,99.90
2023-05-13T23:58:26.291Z,99.90
